Terminal Aerodrome Forecast
Issued by NWS Grand Forks, ND

Home | Current Version | Previous Version | Graphics & Text | Print | Product List | Glossary On
Versions: 1 2 3 4 5 6 7 8 9 10 11 12 13 14 15 16 17 18 19 20
000
FTUS43 KFGF 202300
TAFGFK
TAF
KGFK 202320Z 2100/2124 32015G25KT P6SM SHRA SCT080 BKN100
      TEMPO 2100/2102 -TSRA BKN080CB
     FM210300 32008KT P6SM SCT100
     FM211200 32008KT P6SM BKN025
     FM211700 34008KT P6SM SCT100=

USA.gov is the U.S. government's official web portal to all federal, state and local government web resources and services.